sensor_id;sensor_type;location;lat;lon;timestamp;P1;durP1;ratioP1;P2;durP2;ratioP2
66830;SDS011;53739;44.224;22.528;2022-08-01T00:01:38;3.22;;;2.60;;
66830;SDS011;53739;44.224;22.528;2022-08-01T00:04:04;10.13;;;2.40;;
66830;SDS011;53739;44.224;22.528;2022-08-01T00:06:30;4.57;;;2.50;;
66830;SDS011;53739;44.224;22.528;2022-08-01T00:08:56;7.53;;;2.60;;
66830;SDS011;53739;44.224;22.528;2022-08-01T00:11:22;8.93;;;2.42;;
66830;SDS011;53739;44.224;22.528;2022-08-01T00:13:48;6.10;;;2.03;;
66830;SDS011;53739;44.224;22.528;2022-08-01T00:16:14;4.50;;;2.70;;
66830;SDS011;53739;44.224;22.528;2022-08-01T00:18:40;4.30;;;2.38;;
66830;SDS011;53739;44.224;22.528;2022-08-01T00:21:06;7.47;;;2.78;;
66830;SDS011;53739;44.224;22.528;2022-08-01T00:23:32;5.07;;;2.45;;
66830;SDS011;53739;44.224;22.528;2022-08-01T00:25:58;5.00;;;2.70;;
66830;SDS011;53739;44.224;22.528;2022-08-01T00:28:24;10.27;;;2.60;;
66830;SDS011;53739;44.224;22.528;2022-08-01T00:30:50;6.55;;;2.80;;
66830;SDS011;53739;44.224;22.528;2022-08-01T00:33:16;3.92;;;2.50;;
66830;SDS011;53739;44.224;22.528;2022-08-01T00:35:42;6.07;;;2.70;;
66830;SDS011;53739;44.224;22.528;2022-08-01T00:38:07;4.88;;;2.70;;
66830;SDS011;53739;44.224;22.528;2022-08-01T00:40:33;3.45;;;2.20;;
66830;SDS011;53739;44.224;22.528;2022-08-01T00:42:59;5.18;;;2.38;;
66830;SDS011;53739;44.224;22.528;2022-08-01T00:45:25;3.70;;;2.33;;
66830;SDS011;53739;44.224;22.528;2022-08-01T00:47:50;4.10;;;2.33;;
66830;SDS011;53739;44.224;22.528;2022-08-01T00:50:17;4.97;;;2.70;;
66830;SDS011;53739;44.224;22.528;2022-08-01T00:52:43;4.95;;;2.53;;
66830;SDS011;53739;44.224;22.528;2022-08-01T00:55:09;3.38;;;2.20;;
66830;SDS011;53739;44.224;22.528;2022-08-01T00:57:37;4.93;;;2.67;;
66830;SDS011;53739;44.224;22.528;2022-08-01T01:00:04;6.55;;;2.47;;
66830;SDS011;53739;44.224;22.528;2022-08-01T01:02:31;4.97;;;2.30;;
66830;SDS011;53739;44.224;22.528;2022-08-01T01:04:58;4.32;;;2.38;;
66830;SDS011;53739;44.224;22.528;2022-08-01T01:10:03;4.65;;;2.50;;
66830;SDS011;53739;44.224;22.528;2022-08-01T01:12:38;4.05;;;2.10;;
66830;SDS011;53739;44.224;22.528;2022-08-01T01:17:48;10.50;;;3.42;;
66830;SDS011;53739;44.224;22.528;2022-08-01T01:20:32;4.78;;;2.15;;
66830;SDS011;53739;44.224;22.528;2022-08-01T01:30:50;4.60;;;2.03;;
66830;SDS011;53739;44.224;22.528;2022-08-01T01:33:19;11.98;;;2.47;;
66830;SDS011;53739;44.224;22.528;2022-08-01T01:35:48;3.03;;;2.20;;
66830;SDS011;53739;44.224;22.528;2022-08-01T01:38:21;4.22;;;2.63;;
66830;SDS011;53739;44.224;22.528;2022-08-01T01:40:51;5.82;;;2.40;;
66830;SDS011;53739;44.224;22.528;2022-08-01T01:43:19;6.07;;;2.53;;
66830;SDS011;53739;44.224;22.528;2022-08-01T01:45:47;5.97;;;2.25;;
66830;SDS011;53739;44.224;22.528;2022-08-01T01:48:18;4.55;;;2.00;;
66830;SDS011;53739;44.224;22.528;2022-08-01T01:50:46;5.97;;;2.38;;
66830;SDS011;53739;44.224;22.528;2022-08-01T01:53:17;3.25;;;2.20;;
66830;SDS011;53739;44.224;22.528;2022-08-01T01:55:46;5.63;;;2.28;;
66830;SDS011;53739;44.224;22.528;2022-08-01T01:58:14;4.15;;;2.13;;
66830;SDS011;53739;44.224;22.528;2022-08-01T02:00:42;5.85;;;2.63;;
66830;SDS011;53739;44.224;22.528;2022-08-01T02:03:11;2.75;;;2.03;;
66830;SDS011;53739;44.224;22.528;2022-08-01T02:05:37;7.20;;;2.72;;
66830;SDS011;53739;44.224;22.528;2022-08-01T02:08:05;4.45;;;2.33;;
66830;SDS011;53739;44.224;22.528;2022-08-01T02:10:33;6.15;;;2.33;;
66830;SDS011;53739;44.224;22.528;2022-08-01T02:13:01;4.75;;;2.10;;
66830;SDS011;53739;44.224;22.528;2022-08-01T02:15:30;3.70;;;2.33;;
66830;SDS011;53739;44.224;22.528;2022-08-01T02:17:58;9.20;;;2.50;;
66830;SDS011;53739;44.224;22.528;2022-08-01T02:20:29;3.40;;;2.03;;
66830;SDS011;53739;44.224;22.528;2022-08-01T02:22:57;4.28;;;2.10;;
66830;SDS011;53739;44.224;22.528;2022-08-01T02:25:53;6.32;;;2.83;;
66830;SDS011;53739;44.224;22.528;2022-08-01T02:28:22;4.05;;;2.17;;
66830;SDS011;53739;44.224;22.528;2022-08-01T02:33:22;8.48;;;2.90;;
66830;SDS011;53739;44.224;22.528;2022-08-01T02:35:54;7.50;;;2.35;;
66830;SDS011;53739;44.224;22.528;2022-08-01T02:38:23;3.60;;;2.33;;
66830;SDS011;53739;44.224;22.528;2022-08-01T02:40:52;5.65;;;2.88;;
66830;SDS011;53739;44.224;22.528;2022-08-01T02:43:23;6.13;;;2.60;;
66830;SDS011;53739;44.224;22.528;2022-08-01T02:45:54;5.13;;;2.60;;
66830;SDS011;53739;44.224;22.528;2022-08-01T02:48:25;6.30;;;3.17;;
66830;SDS011;53739;44.224;22.528;2022-08-01T02:50:52;4.90;;;2.28;;
66830;SDS011;53739;44.224;22.528;2022-08-01T02:53:20;5.75;;;2.50;;
66830;SDS011;53739;44.224;22.528;2022-08-01T02:55:48;4.93;;;2.45;;
66830;SDS011;53739;44.224;22.528;2022-08-01T02:58:16;4.55;;;2.35;;
66830;SDS011;53739;44.224;22.528;2022-08-01T03:00:45;2.92;;;1.88;;
66830;SDS011;53739;44.224;22.528;2022-08-01T03:03:13;4.80;;;2.20;;
66830;SDS011;53739;44.224;22.528;2022-08-01T03:05:40;6.72;;;2.60;;
66830;SDS011;53739;44.224;22.528;2022-08-01T03:08:08;4.95;;;2.55;;
66830;SDS011;53739;44.224;22.528;2022-08-01T03:10:38;3.78;;;2.42;;
66830;SDS011;53739;44.224;22.528;2022-08-01T03:13:08;5.45;;;2.67;;
66830;SDS011;53739;44.224;22.528;2022-08-01T03:15:36;3.40;;;1.80;;
66830;SDS011;53739;44.224;22.528;2022-08-01T03:18:05;5.53;;;2.60;;
66830;SDS011;53739;44.224;22.528;2022-08-01T03:20:33;5.93;;;2.40;;
66830;SDS011;53739;44.224;22.528;2022-08-01T03:23:00;3.22;;;2.30;;
66830;SDS011;53739;44.224;22.528;2022-08-01T03:25:29;3.28;;;2.38;;
66830;SDS011;53739;44.224;22.528;2022-08-01T03:27:59;6.30;;;2.58;;
66830;SDS011;53739;44.224;22.528;2022-08-01T03:30:28;3.13;;;2.03;;
66830;SDS011;53739;44.224;22.528;2022-08-01T03:32:56;4.80;;;2.50;;
66830;SDS011;53739;44.224;22.528;2022-08-01T03:35:23;3.88;;;2.33;;
66830;SDS011;53739;44.224;22.528;2022-08-01T03:37:54;4.53;;;2.42;;
66830;SDS011;53739;44.224;22.528;2022-08-01T03:40:23;6.03;;;2.45;;
66830;SDS011;53739;44.224;22.528;2022-08-01T03:42:58;4.93;;;2.10;;
66830;SDS011;53739;44.224;22.528;2022-08-01T03:45:31;3.50;;;2.53;;
66830;SDS011;53739;44.224;22.528;2022-08-01T03:48:02;13.07;;;3.10;;
66830;SDS011;53739;44.224;22.528;2022-08-01T03:50:42;5.50;;;2.47;;
66830;SDS011;53739;44.224;22.528;2022-08-01T03:53:11;3.33;;;2.50;;
66830;SDS011;53739;44.224;22.528;2022-08-01T03:55:39;5.07;;;2.45;;
66830;SDS011;53739;44.224;22.528;2022-08-01T03:58:08;5.38;;;2.97;;
66830;SDS011;53739;44.224;22.528;2022-08-01T04:00:35;4.82;;;2.50;;
66830;SDS011;53739;44.224;22.528;2022-08-01T04:03:10;7.07;;;2.83;;
66830;SDS011;53739;44.224;22.528;2022-08-01T04:05:40;5.75;;;2.63;;
66830;SDS011;53739;44.224;22.528;2022-08-01T04:08:07;5.30;;;2.38;;
66830;SDS011;53739;44.224;22.528;2022-08-01T04:10:33;3.83;;;2.60;;
66830;SDS011;53739;44.224;22.528;2022-08-01T04:13:00;7.65;;;3.15;;
66830;SDS011;53739;44.224;22.528;2022-08-01T04:15:25;5.68;;;3.00;;
66830;SDS011;53739;44.224;22.528;2022-08-01T04:17:51;4.78;;;2.78;;
66830;SDS011;53739;44.224;22.528;2022-08-01T04:20:19;4.82;;;2.60;;
66830;SDS011;53739;44.224;22.528;2022-08-01T04:22:45;4.57;;;2.65;;
66830;SDS011;53739;44.224;22.528;2022-08-01T04:25:12;5.55;;;3.03;;
66830;SDS011;53739;44.224;22.528;2022-08-01T04:27:47;6.25;;;2.55;;
66830;SDS011;53739;44.224;22.528;2022-08-01T04:30:16;8.05;;;2.72;;
66830;SDS011;53739;44.224;22.528;2022-08-01T04:32:45;6.65;;;2.97;;
66830;SDS011;53739;44.224;22.528;2022-08-01T04:35:13;5.43;;;3.10;;
66830;SDS011;53739;44.224;22.528;2022-08-01T04:37:42;4.75;;;2.65;;
66830;SDS011;53739;44.224;22.528;2022-08-01T04:40:11;5.60;;;2.65;;
66830;SDS011;53739;44.224;22.528;2022-08-01T04:42:37;5.90;;;3.15;;
66830;SDS011;53739;44.224;22.528;2022-08-01T04:45:03;6.57;;;3.13;;
66830;SDS011;53739;44.224;22.528;2022-08-01T04:47:30;7.70;;;3.05;;
66830;SDS011;53739;44.224;22.528;2022-08-01T04:49:56;5.60;;;3.05;;
66830;SDS011;53739;44.224;22.528;2022-08-01T04:52:22;6.80;;;3.17;;
66830;SDS011;53739;44.224;22.528;2022-08-01T04:54:48;4.75;;;2.58;;
66830;SDS011;53739;44.224;22.528;2022-08-01T04:57:14;5.60;;;2.50;;
66830;SDS011;53739;44.224;22.528;2022-08-01T04:59:42;5.28;;;2.80;;
66830;SDS011;53739;44.224;22.528;2022-08-01T05:02:12;4.57;;;2.70;;
66830;SDS011;53739;44.224;22.528;2022-08-01T05:04:40;5.63;;;2.65;;
66830;SDS011;53739;44.224;22.528;2022-08-01T05:07:07;3.85;;;2.72;;
66830;SDS011;53739;44.224;22.528;2022-08-01T05:09:33;6.45;;;2.65;;
66830;SDS011;53739;44.224;22.528;2022-08-01T05:12:03;8.15;;;2.70;;
66830;SDS011;53739;44.224;22.528;2022-08-01T05:14:31;5.70;;;2.60;;
66830;SDS011;53739;44.224;22.528;2022-08-01T05:17:02;5.15;;;2.75;;
66830;SDS011;53739;44.224;22.528;2022-08-01T05:19:29;3.60;;;2.55;;
66830;SDS011;53739;44.224;22.528;2022-08-01T05:22:03;6.95;;;2.80;;
66830;SDS011;53739;44.224;22.528;2022-08-01T05:24:32;6.13;;;2.30;;
66830;SDS011;53739;44.224;22.528;2022-08-01T05:26:59;7.63;;;2.78;;
66830;SDS011;53739;44.224;22.528;2022-08-01T05:29:25;6.30;;;2.63;;
66830;SDS011;53739;44.224;22.528;2022-08-01T05:31:52;5.13;;;2.53;;
66830;SDS011;53739;44.224;22.528;2022-08-01T05:34:19;6.55;;;2.50;;
66830;SDS011;53739;44.224;22.528;2022-08-01T05:36:45;4.03;;;2.85;;
66830;SDS011;53739;44.224;22.528;2022-08-01T05:39:12;5.43;;;2.67;;
66830;SDS011;53739;44.224;22.528;2022-08-01T05:41:39;4.22;;;2.47;;
66830;SDS011;53739;44.224;22.528;2022-08-01T05:44:05;3.38;;;2.30;;
66830;SDS011;53739;44.224;22.528;2022-08-01T05:46:32;7.25;;;2.80;;
66830;SDS011;53739;44.224;22.528;2022-08-01T05:49:02;6.57;;;2.72;;
66830;SDS011;53739;44.224;22.528;2022-08-01T05:51:29;5.25;;;2.70;;
66830;SDS011;53739;44.224;22.528;2022-08-01T05:53:55;4.47;;;2.65;;
66830;SDS011;53739;44.224;22.528;2022-08-01T05:56:30;5.85;;;2.58;;
66830;SDS011;53739;44.224;22.528;2022-08-01T05:58:56;4.18;;;2.70;;
66830;SDS011;53739;44.224;22.528;2022-08-01T06:01:22;3.90;;;2.80;;
66830;SDS011;53739;44.224;22.528;2022-08-01T06:03:51;6.53;;;2.50;;
66830;SDS011;53739;44.224;22.528;2022-08-01T06:06:19;3.45;;;2.10;;
66830;SDS011;53739;44.224;22.528;2022-08-01T06:08:54;6.25;;;2.75;;
66830;SDS011;53739;44.224;22.528;2022-08-01T06:11:19;6.88;;;2.55;;
66830;SDS011;53739;44.224;22.528;2022-08-01T06:13:45;4.80;;;2.55;;
66830;SDS011;53739;44.224;22.528;2022-08-01T06:16:11;5.57;;;2.75;;
66830;SDS011;53739;44.224;22.528;2022-08-01T06:18:37;7.70;;;2.40;;
66830;SDS011;53739;44.224;22.528;2022-08-01T06:21:03;6.20;;;2.50;;
66830;SDS011;53739;44.224;22.528;2022-08-01T06:23:28;5.03;;;2.65;;
66830;SDS011;53739;44.224;22.528;2022-08-01T06:25:54;4.35;;;2.30;;
66830;SDS011;53739;44.224;22.528;2022-08-01T06:28:21;3.22;;;2.30;;
66830;SDS011;53739;44.224;22.528;2022-08-01T06:30:47;4.88;;;2.40;;
66830;SDS011;53739;44.224;22.528;2022-08-01T06:33:13;5.43;;;2.65;;
66830;SDS011;53739;44.224;22.528;2022-08-01T06:35:42;9.80;;;2.38;;
66830;SDS011;53739;44.224;22.528;2022-08-01T06:38:07;4.00;;;2.40;;
66830;SDS011;53739;44.224;22.528;2022-08-01T06:40:42;4.45;;;2.28;;
66830;SDS011;53739;44.224;22.528;2022-08-01T06:43:08;6.43;;;2.03;;
66830;SDS011;53739;44.224;22.528;2022-08-01T06:45:36;5.90;;;2.45;;
66830;SDS011;53739;44.224;22.528;2022-08-01T06:48:03;3.92;;;2.50;;
66830;SDS011;53739;44.224;22.528;2022-08-01T06:50:32;3.85;;;2.30;;
66830;SDS011;53739;44.224;22.528;2022-08-01T06:53:00;5.35;;;2.13;;
66830;SDS011;53739;44.224;22.528;2022-08-01T06:55:26;4.97;;;2.15;;
66830;SDS011;53739;44.224;22.528;2022-08-01T06:57:52;5.22;;;2.33;;
66830;SDS011;53739;44.224;22.528;2022-08-01T07:00:19;5.82;;;2.47;;
66830;SDS011;53739;44.224;22.528;2022-08-01T07:02:48;4.22;;;2.30;;
66830;SDS011;53739;44.224;22.528;2022-08-01T07:05:15;5.72;;;2.22;;
66830;SDS011;53739;44.224;22.528;2022-08-01T07:07:41;4.72;;;1.95;;
66830;SDS011;53739;44.224;22.528;2022-08-01T07:10:07;3.42;;;2.13;;
66830;SDS011;53739;44.224;22.528;2022-08-01T07:12:34;2.80;;;1.70;;
66830;SDS011;53739;44.224;22.528;2022-08-01T07:15:04;6.13;;;2.22;;
66830;SDS011;53739;44.224;22.528;2022-08-01T07:17:31;3.95;;;1.73;;
66830;SDS011;53739;44.224;22.528;2022-08-01T07:20:01;5.38;;;1.50;;
66830;SDS011;53739;44.224;22.528;2022-08-01T07:22:27;2.90;;;1.58;;
66830;SDS011;53739;44.224;22.528;2022-08-01T07:24:53;3.13;;;1.50;;
66830;SDS011;53739;44.224;22.528;2022-08-01T07:27:21;6.25;;;1.65;;
66830;SDS011;53739;44.224;22.528;2022-08-01T07:30:07;1.80;;;1.23;;
66830;SDS011;53739;44.224;22.528;2022-08-01T07:32:39;1.30;;;1.20;;
66830;SDS011;53739;44.224;22.528;2022-08-01T07:35:05;2.00;;;1.50;;
66830;SDS011;53739;44.224;22.528;2022-08-01T07:37:31;4.68;;;1.40;;
66830;SDS011;53739;44.224;22.528;2022-08-01T07:39:57;2.80;;;1.15;;
66830;SDS011;53739;44.224;22.528;2022-08-01T07:42:30;3.30;;;1.55;;
66830;SDS011;53739;44.224;22.528;2022-08-01T07:44:56;5.13;;;1.15;;
66830;SDS011;53739;44.224;22.528;2022-08-01T07:47:25;8.00;;;1.52;;
66830;SDS011;53739;44.224;22.528;2022-08-01T07:49:52;3.03;;;1.13;;
66830;SDS011;53739;44.224;22.528;2022-08-01T07:52:24;3.42;;;1.55;;
66830;SDS011;53739;44.224;22.528;2022-08-01T07:54:50;3.65;;;1.40;;
66830;SDS011;53739;44.224;22.528;2022-08-01T07:57:18;1.75;;;1.13;;
66830;SDS011;53739;44.224;22.528;2022-08-01T07:59:47;3.97;;;1.40;;
66830;SDS011;53739;44.224;22.528;2022-08-01T08:02:13;3.72;;;1.30;;
66830;SDS011;53739;44.224;22.528;2022-08-01T08:04:38;1.70;;;1.30;;
66830;SDS011;53739;44.224;22.528;2022-08-01T08:07:04;3.75;;;1.40;;
66830;SDS011;53739;44.224;22.528;2022-08-01T08:09:30;2.17;;;1.30;;
66830;SDS011;53739;44.224;22.528;2022-08-01T08:11:56;1.60;;;1.20;;
66830;SDS011;53739;44.224;22.528;2022-08-01T08:14:22;1.92;;;1.40;;
66830;SDS011;53739;44.224;22.528;2022-08-01T08:16:52;2.92;;;1.30;;
66830;SDS011;53739;44.224;22.528;2022-08-01T08:19:20;2.00;;;1.20;;
66830;SDS011;53739;44.224;22.528;2022-08-01T08:21:46;1.90;;;1.20;;
66830;SDS011;53739;44.224;22.528;2022-08-01T08:24:18;2.58;;;1.48;;
66830;SDS011;53739;44.224;22.528;2022-08-01T08:26:53;3.40;;;1.73;;
66830;SDS011;53739;44.224;22.528;2022-08-01T08:29:23;5.13;;;1.30;;
66830;SDS011;53739;44.224;22.528;2022-08-01T08:31:54;1.98;;;1.30;;
66830;SDS011;53739;44.224;22.528;2022-08-01T08:34:20;1.83;;;1.17;;
66830;SDS011;53739;44.224;22.528;2022-08-01T08:36:46;1.65;;;1.20;;
66830;SDS011;53739;44.224;22.528;2022-08-01T08:39:13;2.28;;;1.30;;
66830;SDS011;53739;44.224;22.528;2022-08-01T08:41:39;2.08;;;1.38;;
66830;SDS011;53739;44.224;22.528;2022-08-01T08:44:06;3.80;;;1.42;;
66830;SDS011;53739;44.224;22.528;2022-08-01T08:46:33;2.05;;;1.23;;
66830;SDS011;53739;44.224;22.528;2022-08-01T08:49:07;2.28;;;1.25;;
66830;SDS011;53739;44.224;22.528;2022-08-01T08:51:35;1.85;;;1.10;;
66830;SDS011;53739;44.224;22.528;2022-08-01T08:54:06;2.45;;;1.40;;
66830;SDS011;53739;44.224;22.528;2022-08-01T08:56:33;1.88;;;1.27;;
66830;SDS011;53739;44.224;22.528;2022-08-01T08:59:00;2.15;;;1.30;;
66830;SDS011;53739;44.224;22.528;2022-08-01T09:01:27;2.33;;;1.30;;
66830;SDS011;53739;44.224;22.528;2022-08-01T09:03:54;4.63;;;1.55;;
66830;SDS011;53739;44.224;22.528;2022-08-01T09:06:19;2.38;;;1.30;;
66830;SDS011;53739;44.224;22.528;2022-08-01T09:08:45;1.70;;;1.30;;
66830;SDS011;53739;44.224;22.528;2022-08-01T09:11:11;3.03;;;1.23;;
66830;SDS011;53739;44.224;22.528;2022-08-01T09:16:43;2.22;;;1.35;;
66830;SDS011;53739;44.224;22.528;2022-08-01T09:19:11;3.20;;;1.38;;
66830;SDS011;53739;44.224;22.528;2022-08-01T09:21:59;2.53;;;1.40;;
66830;SDS011;53739;44.224;22.528;2022-08-01T09:24:30;1.70;;;1.13;;
66830;SDS011;53739;44.224;22.528;2022-08-01T09:26:57;1.63;;;1.10;;
66830;SDS011;53739;44.224;22.528;2022-08-01T09:29:24;1.25;;;0.90;;
66830;SDS011;53739;44.224;22.528;2022-08-01T09:31:55;1.50;;;1.10;;
66830;SDS011;53739;44.224;22.528;2022-08-01T09:34:27;2.20;;;1.17;;
66830;SDS011;53739;44.224;22.528;2022-08-01T09:36:59;1.42;;;1.00;;
66830;SDS011;53739;44.224;22.528;2022-08-01T09:39:40;1.60;;;1.20;;
66830;SDS011;53739;44.224;22.528;2022-08-01T09:44:47;3.17;;;1.25;;
66830;SDS011;53739;44.224;22.528;2022-08-01T09:47:14;2.10;;;1.20;;
66830;SDS011;53739;44.224;22.528;2022-08-01T09:49:41;2.72;;;1.10;;
66830;SDS011;53739;44.224;22.528;2022-08-01T09:52:13;4.32;;;1.50;;
66830;SDS011;53739;44.224;22.528;2022-08-01T09:54:58;1.50;;;1.10;;
66830;SDS011;53739;44.224;22.528;2022-08-01T09:57:31;1.43;;;1.13;;
66830;SDS011;53739;44.224;22.528;2022-08-01T09:59:58;1.67;;;1.38;;
66830;SDS011;53739;44.224;22.528;2022-08-01T10:02:29;3.60;;;1.70;;
66830;SDS011;53739;44.224;22.528;2022-08-01T10:05:02;2.30;;;1.50;;
66830;SDS011;53739;44.224;22.528;2022-08-01T10:07:33;4.97;;;2.15;;
66830;SDS011;53739;44.224;22.528;2022-08-01T10:12:57;2.33;;;1.50;;
66830;SDS011;53739;44.224;22.528;2022-08-01T10:15:24;3.17;;;1.50;;
66830;SDS011;53739;44.224;22.528;2022-08-01T10:17:58;2.90;;;1.20;;
66830;SDS011;53739;44.224;22.528;2022-08-01T10:20:27;2.72;;;1.30;;
66830;SDS011;53739;44.224;22.528;2022-08-01T10:22:55;1.75;;;1.30;;
66830;SDS011;53739;44.224;22.528;2022-08-01T10:25:33;1.83;;;1.30;;
66830;SDS011;53739;44.224;22.528;2022-08-01T10:28:14;3.47;;;1.45;;
66830;SDS011;53739;44.224;22.528;2022-08-01T10:30:51;1.45;;;1.00;;
66830;SDS011;53739;44.224;22.528;2022-08-01T10:33:18;1.88;;;1.10;;
66830;SDS011;53739;44.224;22.528;2022-08-01T10:36:02;1.88;;;1.20;;
66830;SDS011;53739;44.224;22.528;2022-08-01T10:38:29;1.27;;;1.00;;
66830;SDS011;53739;44.224;22.528;2022-08-01T10:44:01;3.28;;;1.27;;
66830;SDS011;53739;44.224;22.528;2022-08-01T10:47:33;1.60;;;1.00;;
66830;SDS011;53739;44.224;22.528;2022-08-01T10:49:58;1.15;;;1.05;;
66830;SDS011;53739;44.224;22.528;2022-08-01T10:52:32;1.55;;;1.00;;
66830;SDS011;53739;44.224;22.528;2022-08-01T10:55:04;2.78;;;1.38;;
66830;SDS011;53739;44.224;22.528;2022-08-01T10:57:41;1.75;;;1.00;;
66830;SDS011;53739;44.224;22.528;2022-08-01T11:00:08;1.20;;;1.10;;
66830;SDS011;53739;44.224;22.528;2022-08-01T11:02:34;1.33;;;1.00;;
66830;SDS011;53739;44.224;22.528;2022-08-01T11:05:12;1.77;;;1.10;;
66830;SDS011;53739;44.224;22.528;2022-08-01T11:07:52;1.10;;;0.90;;
66830;SDS011;53739;44.224;22.528;2022-08-01T11:10:36;2.78;;;1.00;;
66830;SDS011;53739;44.224;22.528;2022-08-01T11:13:12;3.60;;;1.23;;
66830;SDS011;53739;44.224;22.528;2022-08-01T11:15:43;3.10;;;1.27;;
66830;SDS011;53739;44.224;22.528;2022-08-01T11:20:59;2.28;;;1.42;;
66830;SDS011;53739;44.224;22.528;2022-08-01T11:23:27;2.10;;;1.40;;
66830;SDS011;53739;44.224;22.528;2022-08-01T11:26:19;2.85;;;0.93;;
66830;SDS011;53739;44.224;22.528;2022-08-01T11:29:33;3.33;;;1.48;;
66830;SDS011;53739;44.224;22.528;2022-08-01T11:31:43;1.67;;;1.40;;
66830;SDS011;53739;44.224;22.528;2022-08-01T11:34:09;2.78;;;1.50;;
66830;SDS011;53739;44.224;22.528;2022-08-01T11:37:28;1.27;;;1.00;;
66830;SDS011;53739;44.224;22.528;2022-08-01T11:45:56;2.05;;;1.38;;
66830;SDS011;53739;44.224;22.528;2022-08-01T11:48:23;3.20;;;1.20;;
66830;SDS011;53739;44.224;22.528;2022-08-01T11:50:56;1.55;;;1.13;;
66830;SDS011;53739;44.224;22.528;2022-08-01T11:53:23;2.60;;;1.33;;
66830;SDS011;53739;44.224;22.528;2022-08-01T11:55:52;1.88;;;1.00;;
66830;SDS011;53739;44.224;22.528;2022-08-01T11:58:25;1.35;;;1.00;;
66830;SDS011;53739;44.224;22.528;2022-08-01T12:01:11;2.97;;;1.08;;
66830;SDS011;53739;44.224;22.528;2022-08-01T12:03:41;1.13;;;1.00;;
66830;SDS011;53739;44.224;22.528;2022-08-01T12:06:07;1.77;;;1.15;;
66830;SDS011;53739;44.224;22.528;2022-08-01T12:08:33;1.75;;;1.13;;
66830;SDS011;53739;44.224;22.528;2022-08-01T12:14:57;1.70;;;1.20;;
66830;SDS011;53739;44.224;22.528;2022-08-01T12:17:31;1.95;;;1.38;;
66830;SDS011;53739;44.224;22.528;2022-08-01T12:20:08;2.78;;;1.38;;
66830;SDS011;53739;44.224;22.528;2022-08-01T12:22:44;1.83;;;1.25;;
66830;SDS011;53739;44.224;22.528;2022-08-01T12:28:39;2.67;;;1.20;;
66830;SDS011;53739;44.224;22.528;2022-08-01T12:31:05;2.92;;;1.50;;
66830;SDS011;53739;44.224;22.528;2022-08-01T12:33:33;1.58;;;1.20;;
66830;SDS011;53739;44.224;22.528;2022-08-01T12:36:11;2.03;;;1.40;;
66830;SDS011;53739;44.224;22.528;2022-08-01T12:38:37;2.28;;;1.33;;
66830;SDS011;53739;44.224;22.528;2022-08-01T12:41:17;2.65;;;1.20;;
66830;SDS011;53739;44.224;22.528;2022-08-01T12:43:43;1.60;;;1.30;;
66830;SDS011;53739;44.224;22.528;2022-08-01T12:46:09;1.80;;;1.40;;
66830;SDS011;53739;44.224;22.528;2022-08-01T12:48:41;3.90;;;2.27;;
66830;SDS011;53739;44.224;22.528;2022-08-01T12:51:10;4.88;;;1.90;;
66830;SDS011;53739;44.224;22.528;2022-08-01T12:53:36;3.10;;;1.33;;
66830;SDS011;53739;44.224;22.528;2022-08-01T12:56:05;4.05;;;1.80;;
66830;SDS011;53739;44.224;22.528;2022-08-01T12:58:34;1.48;;;1.30;;
66830;SDS011;53739;44.224;22.528;2022-08-01T13:01:04;3.03;;;1.63;;
66830;SDS011;53739;44.224;22.528;2022-08-01T13:03:32;1.58;;;1.20;;
66830;SDS011;53739;44.224;22.528;2022-08-01T13:06:15;2.08;;;1.40;;
66830;SDS011;53739;44.224;22.528;2022-08-01T13:08:50;5.63;;;1.50;;
66830;SDS011;53739;44.224;22.528;2022-08-01T13:14:36;3.83;;;1.80;;
66830;SDS011;53739;44.224;22.528;2022-08-01T13:21:08;2.83;;;1.23;;
66830;SDS011;53739;44.224;22.528;2022-08-01T13:26:47;1.20;;;1.08;;
66830;SDS011;53739;44.224;22.528;2022-08-01T13:34:43;2.40;;;1.10;;
66830;SDS011;53739;44.224;22.528;2022-08-01T13:37:23;1.48;;;1.20;;
66830;SDS011;53739;44.224;22.528;2022-08-01T13:39:49;1.75;;;1.17;;
66830;SDS011;53739;44.224;22.528;2022-08-01T13:42:15;5.65;;;1.40;;
66830;SDS011;53739;44.224;22.528;2022-08-01T13:44:47;1.38;;;1.10;;
66830;SDS011;53739;44.224;22.528;2022-08-01T13:47:18;2.08;;;1.30;;
66830;SDS011;53739;44.224;22.528;2022-08-01T13:49:50;6.80;;;1.33;;
66830;SDS011;53739;44.224;22.528;2022-08-01T13:52:16;1.27;;;0.98;;
66830;SDS011;53739;44.224;22.528;2022-08-01T13:54:45;1.38;;;1.10;;
66830;SDS011;53739;44.224;22.528;2022-08-01T14:01:20;4.07;;;1.20;;
66830;SDS011;53739;44.224;22.528;2022-08-01T14:03:50;2.55;;;1.33;;
66830;SDS011;53739;44.224;22.528;2022-08-01T14:06:19;6.38;;;1.60;;
66830;SDS011;53739;44.224;22.528;2022-08-01T14:08:47;5.30;;;1.38;;
66830;SDS011;53739;44.224;22.528;2022-08-01T14:11:14;3.50;;;1.33;;
66830;SDS011;53739;44.224;22.528;2022-08-01T14:13:43;4.18;;;1.30;;
66830;SDS011;53739;44.224;22.528;2022-08-01T14:16:30;4.60;;;1.48;;
66830;SDS011;53739;44.224;22.528;2022-08-01T14:22:13;2.83;;;1.40;;
66830;SDS011;53739;44.224;22.528;2022-08-01T14:28:52;3.33;;;1.10;;
66830;SDS011;53739;44.224;22.528;2022-08-01T14:31:18;3.58;;;2.17;;
66830;SDS011;53739;44.224;22.528;2022-08-01T14:40:37;5.60;;;1.42;;
66830;SDS011;53739;44.224;22.528;2022-08-01T14:43:03;1.88;;;1.40;;
66830;SDS011;53739;44.224;22.528;2022-08-01T14:45:29;4.57;;;1.30;;
66830;SDS011;53739;44.224;22.528;2022-08-01T14:47:55;2.33;;;1.30;;
66830;SDS011;53739;44.224;22.528;2022-08-01T14:50:21;3.05;;;1.10;;
66830;SDS011;53739;44.224;22.528;2022-08-01T14:52:49;2.50;;;1.30;;
66830;SDS011;53739;44.224;22.528;2022-08-01T14:58:36;3.38;;;1.38;;
66830;SDS011;53739;44.224;22.528;2022-08-01T15:01:11;2.75;;;1.67;;
66830;SDS011;53739;44.224;22.528;2022-08-01T15:03:45;2.28;;;1.40;;
66830;SDS011;53739;44.224;22.528;2022-08-01T15:06:18;2.30;;;1.63;;
66830;SDS011;53739;44.224;22.528;2022-08-01T15:08:52;2.90;;;1.35;;
66830;SDS011;53739;44.224;22.528;2022-08-01T15:11:18;2.67;;;1.48;;
66830;SDS011;53739;44.224;22.528;2022-08-01T15:13:47;3.80;;;1.30;;
66830;SDS011;53739;44.224;22.528;2022-08-01T15:16:33;2.03;;;1.42;;
66830;SDS011;53739;44.224;22.528;2022-08-01T15:19:08;3.10;;;1.60;;
66830;SDS011;53739;44.224;22.528;2022-08-01T15:21:37;1.58;;;1.20;;
66830;SDS011;53739;44.224;22.528;2022-08-01T15:24:04;3.80;;;1.50;;
66830;SDS011;53739;44.224;22.528;2022-08-01T15:26:33;1.85;;;1.20;;
66830;SDS011;53739;44.224;22.528;2022-08-01T15:29:00;5.90;;;1.30;;
66830;SDS011;53739;44.224;22.528;2022-08-01T15:31:29;1.90;;;1.40;;
66830;SDS011;53739;44.224;22.528;2022-08-01T15:33:55;2.75;;;1.42;;
66830;SDS011;53739;44.224;22.528;2022-08-01T15:36:24;2.10;;;1.40;;
66830;SDS011;53739;44.224;22.528;2022-08-01T15:42:49;2.20;;;1.30;;
66830;SDS011;53739;44.224;22.528;2022-08-01T15:45:17;1.65;;;1.20;;
66830;SDS011;53739;44.224;22.528;2022-08-01T15:47:46;3.83;;;1.50;;
66830;SDS011;53739;44.224;22.528;2022-08-01T15:50:15;2.53;;;1.40;;
66830;SDS011;53739;44.224;22.528;2022-08-01T15:55:10;2.50;;;1.63;;
66830;SDS011;53739;44.224;22.528;2022-08-01T15:57:36;2.10;;;1.20;;
66830;SDS011;53739;44.224;22.528;2022-08-01T16:00:03;3.97;;;1.40;;
66830;SDS011;53739;44.224;22.528;2022-08-01T16:02:33;1.70;;;1.20;;
66830;SDS011;53739;44.224;22.528;2022-08-01T16:05:02;2.70;;;1.15;;
66830;SDS011;53739;44.224;22.528;2022-08-01T16:07:37;2.53;;;1.48;;
66830;SDS011;53739;44.224;22.528;2022-08-01T16:13:39;3.40;;;1.45;;
66830;SDS011;53739;44.224;22.528;2022-08-01T16:16:09;2.53;;;1.52;;
66830;SDS011;53739;44.224;22.528;2022-08-01T16:18:42;9.27;;;1.83;;